sensor_id;sensor_type;location;lat;lon;timestamp;P1;durP1;ratioP1;P2;durP2;ratioP2
43337;SDS011;28933;52.492;13.434;2023-06-22T00:01:01;9.35;;;6.55;;
43337;SDS011;28933;52.492;13.434;2023-06-22T00:03:47;10.80;;;7.43;;
43337;SDS011;28933;52.492;13.434;2023-06-22T00:06:33;10.00;;;6.65;;
43337;SDS011;28933;52.492;13.434;2023-06-22T00:09:19;14.68;;;8.77;;
43337;SDS011;28933;52.492;13.434;2023-06-22T00:12:05;10.43;;;7.93;;
43337;SDS011;28933;52.492;13.434;2023-06-22T00:14:52;9.25;;;7.18;;
43337;SDS011;28933;52.492;13.434;2023-06-22T00:17:38;11.70;;;9.10;;
43337;SDS011;28933;52.492;13.434;2023-06-22T00:20:24;12.93;;;9.32;;
43337;SDS011;28933;52.492;13.434;2023-06-22T00:23:13;11.27;;;8.48;;
43337;SDS011;28933;52.492;13.434;2023-06-22T00:26:03;11.32;;;8.23;;
43337;SDS011;28933;52.492;13.434;2023-06-22T00:28:49;10.90;;;7.60;;
43337;SDS011;28933;52.492;13.434;2023-06-22T00:31:35;10.57;;;7.60;;
43337;SDS011;28933;52.492;13.434;2023-06-22T00:34:24;9.60;;;6.70;;
43337;SDS011;28933;52.492;13.434;2023-06-22T00:37:09;8.57;;;6.88;;
43337;SDS011;28933;52.492;13.434;2023-06-22T00:39:56;10.50;;;7.70;;
43337;SDS011;28933;52.492;13.434;2023-06-22T00:42:42;10.93;;;7.22;;
43337;SDS011;28933;52.492;13.434;2023-06-22T00:45:28;10.65;;;6.50;;
43337;SDS011;28933;52.492;13.434;2023-06-22T00:48:14;10.38;;;8.32;;
43337;SDS011;28933;52.492;13.434;2023-06-22T00:51:00;9.30;;;6.30;;
43337;SDS011;28933;52.492;13.434;2023-06-22T00:53:47;14.95;;;10.10;;
43337;SDS011;28933;52.492;13.434;2023-06-22T00:56:33;15.32;;;11.10;;
43337;SDS011;28933;52.492;13.434;2023-06-22T00:59:23;12.05;;;9.15;;
43337;SDS011;28933;52.492;13.434;2023-06-22T01:02:09;9.90;;;7.72;;
43337;SDS011;28933;52.492;13.434;2023-06-22T01:04:55;12.75;;;7.80;;
43337;SDS011;28933;52.492;13.434;2023-06-22T01:07:43;12.45;;;7.85;;
43337;SDS011;28933;52.492;13.434;2023-06-22T01:13:57;13.20;;;9.02;;
43337;SDS011;28933;52.492;13.434;2023-06-22T01:16:51;13.63;;;11.43;;
43337;SDS011;28933;52.492;13.434;2023-06-22T01:19:45;15.20;;;13.60;;
43337;SDS011;28933;52.492;13.434;2023-06-22T01:23:02;13.90;;;12.13;;
43337;SDS011;28933;52.492;13.434;2023-06-22T01:29:07;14.38;;;10.68;;
43337;SDS011;28933;52.492;13.434;2023-06-22T01:31:59;17.25;;;10.23;;
43337;SDS011;28933;52.492;13.434;2023-06-22T01:34:47;11.65;;;8.85;;
43337;SDS011;28933;52.492;13.434;2023-06-22T01:37:34;12.75;;;8.82;;
43337;SDS011;28933;52.492;13.434;2023-06-22T01:40:22;39.63;;;26.75;;
43337;SDS011;28933;52.492;13.434;2023-06-22T01:43:09;14.65;;;11.23;;
43337;SDS011;28933;52.492;13.434;2023-06-22T01:45:59;17.13;;;13.77;;
43337;SDS011;28933;52.492;13.434;2023-06-22T01:48:46;19.33;;;15.88;;
43337;SDS011;28933;52.492;13.434;2023-06-22T01:51:33;16.77;;;11.93;;
43337;SDS011;28933;52.492;13.434;2023-06-22T01:54:19;18.67;;;16.20;;
43337;SDS011;28933;52.492;13.434;2023-06-22T01:57:05;14.60;;;12.57;;
43337;SDS011;28933;52.492;13.434;2023-06-22T02:00:04;16.67;;;15.00;;
43337;SDS011;28933;52.492;13.434;2023-06-22T02:02:59;19.83;;;15.85;;
43337;SDS011;28933;52.492;13.434;2023-06-22T02:06:04;14.30;;;11.30;;
43337;SDS011;28933;52.492;13.434;2023-06-22T02:08:55;16.77;;;13.15;;
43337;SDS011;28933;52.492;13.434;2023-06-22T02:11:45;19.48;;;13.88;;
43337;SDS011;28933;52.492;13.434;2023-06-22T02:14:34;25.55;;;22.80;;
43337;SDS011;28933;52.492;13.434;2023-06-22T02:17:21;20.15;;;15.95;;
43337;SDS011;28933;52.492;13.434;2023-06-22T02:20:07;17.65;;;15.73;;
43337;SDS011;28933;52.492;13.434;2023-06-22T02:22:58;15.73;;;10.18;;
43337;SDS011;28933;52.492;13.434;2023-06-22T02:25:44;17.45;;;13.10;;
43337;SDS011;28933;52.492;13.434;2023-06-22T02:28:30;17.60;;;14.63;;
43337;SDS011;28933;52.492;13.434;2023-06-22T02:31:16;21.88;;;17.33;;
43337;SDS011;28933;52.492;13.434;2023-06-22T02:34:03;20.58;;;13.93;;
43337;SDS011;28933;52.492;13.434;2023-06-22T02:36:49;17.33;;;13.90;;
43337;SDS011;28933;52.492;13.434;2023-06-22T02:39:38;18.23;;;14.70;;
43337;SDS011;28933;52.492;13.434;2023-06-22T02:42:25;31.17;;;28.02;;
43337;SDS011;28933;52.492;13.434;2023-06-22T02:45:11;18.08;;;16.23;;
43337;SDS011;28933;52.492;13.434;2023-06-22T02:47:57;22.10;;;16.48;;
43337;SDS011;28933;52.492;13.434;2023-06-22T02:50:43;19.95;;;14.82;;
43337;SDS011;28933;52.492;13.434;2023-06-22T02:53:29;17.50;;;15.45;;
43337;SDS011;28933;52.492;13.434;2023-06-22T02:56:15;19.13;;;13.20;;
43337;SDS011;28933;52.492;13.434;2023-06-22T02:59:03;17.48;;;14.65;;
43337;SDS011;28933;52.492;13.434;2023-06-22T03:01:49;15.93;;;11.98;;
43337;SDS011;28933;52.492;13.434;2023-06-22T03:04:35;13.23;;;10.38;;
43337;SDS011;28933;52.492;13.434;2023-06-22T03:07:21;12.73;;;10.95;;
43337;SDS011;28933;52.492;13.434;2023-06-22T03:10:10;13.00;;;10.20;;
43337;SDS011;28933;52.492;13.434;2023-06-22T03:12:57;10.55;;;8.35;;
43337;SDS011;28933;52.492;13.434;2023-06-22T03:15:43;12.00;;;9.27;;
43337;SDS011;28933;52.492;13.434;2023-06-22T03:18:29;12.18;;;9.10;;
43337;SDS011;28933;52.492;13.434;2023-06-22T03:21:15;11.18;;;8.18;;
43337;SDS011;28933;52.492;13.434;2023-06-22T03:24:02;10.80;;;8.18;;
43337;SDS011;28933;52.492;13.434;2023-06-22T03:26:48;10.68;;;8.15;;
43337;SDS011;28933;52.492;13.434;2023-06-22T03:29:34;10.05;;;7.95;;
43337;SDS011;28933;52.492;13.434;2023-06-22T03:32:20;11.43;;;8.13;;
43337;SDS011;28933;52.492;13.434;2023-06-22T03:35:06;11.77;;;8.23;;
43337;SDS011;28933;52.492;13.434;2023-06-22T03:37:53;9.68;;;7.25;;
43337;SDS011;28933;52.492;13.434;2023-06-22T03:40:38;9.30;;;7.22;;
43337;SDS011;28933;52.492;13.434;2023-06-22T03:43:24;9.25;;;6.78;;
43337;SDS011;28933;52.492;13.434;2023-06-22T03:46:10;8.25;;;6.22;;
43337;SDS011;28933;52.492;13.434;2023-06-22T03:48:56;9.60;;;6.32;;
43337;SDS011;28933;52.492;13.434;2023-06-22T03:51:42;8.77;;;6.93;;
43337;SDS011;28933;52.492;13.434;2023-06-22T03:54:28;10.13;;;6.00;;
43337;SDS011;28933;52.492;13.434;2023-06-22T03:57:15;10.05;;;5.50;;
43337;SDS011;28933;52.492;13.434;2023-06-22T04:00:01;7.68;;;4.72;;
43337;SDS011;28933;52.492;13.434;2023-06-22T04:02:50;8.27;;;5.43;;
43337;SDS011;28933;52.492;13.434;2023-06-22T04:05:36;7.90;;;4.82;;
43337;SDS011;28933;52.492;13.434;2023-06-22T04:08:24;6.53;;;4.32;;
43337;SDS011;28933;52.492;13.434;2023-06-22T04:11:13;7.35;;;5.10;;
43337;SDS011;28933;52.492;13.434;2023-06-22T04:13:58;7.03;;;4.97;;
43337;SDS011;28933;52.492;13.434;2023-06-22T04:16:45;6.43;;;4.80;;
43337;SDS011;28933;52.492;13.434;2023-06-22T04:19:31;6.75;;;4.80;;
43337;SDS011;28933;52.492;13.434;2023-06-22T04:22:17;8.13;;;4.68;;
43337;SDS011;28933;52.492;13.434;2023-06-22T04:25:03;8.07;;;5.18;;
43337;SDS011;28933;52.492;13.434;2023-06-22T04:27:51;8.05;;;5.38;;
43337;SDS011;28933;52.492;13.434;2023-06-22T04:30:36;8.52;;;5.20;;
43337;SDS011;28933;52.492;13.434;2023-06-22T04:33:31;7.78;;;5.45;;
43337;SDS011;28933;52.492;13.434;2023-06-22T04:36:17;8.18;;;4.93;;
43337;SDS011;28933;52.492;13.434;2023-06-22T04:39:10;7.90;;;5.15;;
43337;SDS011;28933;52.492;13.434;2023-06-22T04:41:56;7.57;;;5.88;;
43337;SDS011;28933;52.492;13.434;2023-06-22T04:44:45;7.82;;;5.47;;
43337;SDS011;28933;52.492;13.434;2023-06-22T04:47:31;8.02;;;5.22;;
43337;SDS011;28933;52.492;13.434;2023-06-22T04:50:17;6.30;;;4.82;;
43337;SDS011;28933;52.492;13.434;2023-06-22T04:53:05;8.00;;;4.82;;
43337;SDS011;28933;52.492;13.434;2023-06-22T04:55:51;6.70;;;4.88;;
43337;SDS011;28933;52.492;13.434;2023-06-22T04:58:38;12.10;;;4.63;;
43337;SDS011;28933;52.492;13.434;2023-06-22T05:01:24;6.85;;;5.13;;
43337;SDS011;28933;52.492;13.434;2023-06-22T05:04:10;6.82;;;4.25;;
43337;SDS011;28933;52.492;13.434;2023-06-22T05:06:57;8.98;;;4.00;;
43337;SDS011;28933;52.492;13.434;2023-06-22T05:09:47;8.07;;;4.57;;
43337;SDS011;28933;52.492;13.434;2023-06-22T05:12:32;5.85;;;4.05;;
43337;SDS011;28933;52.492;13.434;2023-06-22T05:15:18;7.32;;;4.63;;
43337;SDS011;28933;52.492;13.434;2023-06-22T05:18:04;6.72;;;4.43;;
43337;SDS011;28933;52.492;13.434;2023-06-22T05:20:51;7.57;;;5.03;;
43337;SDS011;28933;52.492;13.434;2023-06-22T05:23:37;6.00;;;4.40;;
43337;SDS011;28933;52.492;13.434;2023-06-22T05:26:23;6.53;;;4.13;;
43337;SDS011;28933;52.492;13.434;2023-06-22T05:29:09;8.93;;;4.80;;
43337;SDS011;28933;52.492;13.434;2023-06-22T05:31:55;8.57;;;4.30;;
43337;SDS011;28933;52.492;13.434;2023-06-22T05:34:41;7.47;;;4.47;;
43337;SDS011;28933;52.492;13.434;2023-06-22T05:37:28;6.78;;;4.55;;
43337;SDS011;28933;52.492;13.434;2023-06-22T05:40:14;5.45;;;4.25;;
43337;SDS011;28933;52.492;13.434;2023-06-22T05:43:00;7.45;;;4.70;;
43337;SDS011;28933;52.492;13.434;2023-06-22T05:45:47;7.13;;;4.60;;
43337;SDS011;28933;52.492;13.434;2023-06-22T05:48:33;8.45;;;4.47;;
43337;SDS011;28933;52.492;13.434;2023-06-22T05:51:19;8.13;;;4.43;;
43337;SDS011;28933;52.492;13.434;2023-06-22T05:54:04;5.22;;;3.70;;
43337;SDS011;28933;52.492;13.434;2023-06-22T05:56:50;6.15;;;4.70;;
43337;SDS011;28933;52.492;13.434;2023-06-22T05:59:37;5.60;;;4.07;;
43337;SDS011;28933;52.492;13.434;2023-06-22T06:02:23;6.05;;;3.90;;
43337;SDS011;28933;52.492;13.434;2023-06-22T06:05:12;5.88;;;3.80;;
43337;SDS011;28933;52.492;13.434;2023-06-22T06:08:01;6.53;;;4.65;;
43337;SDS011;28933;52.492;13.434;2023-06-22T06:10:50;6.07;;;3.85;;
43337;SDS011;28933;52.492;13.434;2023-06-22T06:13:38;7.03;;;3.85;;
43337;SDS011;28933;52.492;13.434;2023-06-22T06:16:24;6.72;;;4.07;;
43337;SDS011;28933;52.492;13.434;2023-06-22T06:19:10;6.60;;;4.32;;
43337;SDS011;28933;52.492;13.434;2023-06-22T06:21:56;6.35;;;3.97;;
43337;SDS011;28933;52.492;13.434;2023-06-22T06:24:42;7.30;;;4.28;;
43337;SDS011;28933;52.492;13.434;2023-06-22T06:27:28;8.77;;;4.72;;
43337;SDS011;28933;52.492;13.434;2023-06-22T06:30:15;5.38;;;3.80;;
43337;SDS011;28933;52.492;13.434;2023-06-22T06:33:02;5.90;;;3.60;;
43337;SDS011;28933;52.492;13.434;2023-06-22T06:35:53;5.70;;;4.22;;
43337;SDS011;28933;52.492;13.434;2023-06-22T06:38:41;4.95;;;3.80;;
43337;SDS011;28933;52.492;13.434;2023-06-22T06:41:27;5.45;;;3.67;;
43337;SDS011;28933;52.492;13.434;2023-06-22T06:44:13;5.97;;;3.72;;
43337;SDS011;28933;52.492;13.434;2023-06-22T06:46:59;6.22;;;3.50;;
43337;SDS011;28933;52.492;13.434;2023-06-22T06:49:45;5.40;;;4.05;;
43337;SDS011;28933;52.492;13.434;2023-06-22T06:52:31;4.63;;;2.72;;
43337;SDS011;28933;52.492;13.434;2023-06-22T06:55:17;4.43;;;2.92;;
43337;SDS011;28933;52.492;13.434;2023-06-22T06:58:04;4.88;;;2.70;;
43337;SDS011;28933;52.492;13.434;2023-06-22T07:00:52;4.97;;;3.00;;
43337;SDS011;28933;52.492;13.434;2023-06-22T07:03:38;4.65;;;3.13;;
43337;SDS011;28933;52.492;13.434;2023-06-22T07:06:24;5.32;;;2.70;;
43337;SDS011;28933;52.492;13.434;2023-06-22T07:09:14;3.55;;;2.25;;
43337;SDS011;28933;52.492;13.434;2023-06-22T07:12:00;3.55;;;2.40;;
43337;SDS011;28933;52.492;13.434;2023-06-22T07:14:46;3.35;;;2.20;;
43337;SDS011;28933;52.492;13.434;2023-06-22T07:17:32;3.53;;;2.17;;
43337;SDS011;28933;52.492;13.434;2023-06-22T07:20:18;4.07;;;2.70;;
43337;SDS011;28933;52.492;13.434;2023-06-22T07:23:05;3.42;;;2.30;;
43337;SDS011;28933;52.492;13.434;2023-06-22T07:25:51;6.85;;;2.88;;
43337;SDS011;28933;52.492;13.434;2023-06-22T07:28:36;6.20;;;2.55;;
43337;SDS011;28933;52.492;13.434;2023-06-22T07:31:26;5.30;;;2.30;;
43337;SDS011;28933;52.492;13.434;2023-06-22T07:34:12;4.03;;;2.65;;
43337;SDS011;28933;52.492;13.434;2023-06-22T07:36:58;3.92;;;2.25;;
43337;SDS011;28933;52.492;13.434;2023-06-22T07:39:44;2.80;;;2.10;;
43337;SDS011;28933;52.492;13.434;2023-06-22T07:42:30;7.20;;;2.58;;
43337;SDS011;28933;52.492;13.434;2023-06-22T07:45:18;4.45;;;2.70;;
43337;SDS011;28933;52.492;13.434;2023-06-22T07:48:04;6.63;;;2.55;;
43337;SDS011;28933;52.492;13.434;2023-06-22T07:50:50;3.22;;;2.10;;
43337;SDS011;28933;52.492;13.434;2023-06-22T07:53:36;4.55;;;2.28;;
43337;SDS011;28933;52.492;13.434;2023-06-22T07:56:22;3.42;;;1.98;;
43337;SDS011;28933;52.492;13.434;2023-06-22T07:59:08;4.20;;;2.30;;
43337;SDS011;28933;52.492;13.434;2023-06-22T08:01:54;3.65;;;2.10;;
43337;SDS011;28933;52.492;13.434;2023-06-22T08:04:40;2.53;;;1.92;;
43337;SDS011;28933;52.492;13.434;2023-06-22T08:07:26;3.78;;;2.08;;
43337;SDS011;28933;52.492;13.434;2023-06-22T08:10:12;3.28;;;1.88;;
43337;SDS011;28933;52.492;13.434;2023-06-22T08:12:59;3.58;;;2.03;;
43337;SDS011;28933;52.492;13.434;2023-06-22T08:15:44;3.00;;;2.10;;
43337;SDS011;28933;52.492;13.434;2023-06-22T08:18:30;3.53;;;2.30;;
43337;SDS011;28933;52.492;13.434;2023-06-22T08:21:17;5.15;;;2.15;;
43337;SDS011;28933;52.492;13.434;2023-06-22T08:24:03;3.83;;;1.92;;
43337;SDS011;28933;52.492;13.434;2023-06-22T08:26:51;3.25;;;2.25;;
43337;SDS011;28933;52.492;13.434;2023-06-22T08:29:37;3.22;;;2.15;;
43337;SDS011;28933;52.492;13.434;2023-06-22T08:32:23;4.40;;;2.50;;
43337;SDS011;28933;52.492;13.434;2023-06-22T08:35:11;7.18;;;2.72;;
43337;SDS011;28933;52.492;13.434;2023-06-22T08:37:57;3.10;;;1.73;;
43337;SDS011;28933;52.492;13.434;2023-06-22T08:40:45;3.28;;;2.25;;
43337;SDS011;28933;52.492;13.434;2023-06-22T08:43:31;5.78;;;2.20;;
43337;SDS011;28933;52.492;13.434;2023-06-22T08:46:16;3.72;;;2.38;;
43337;SDS011;28933;52.492;13.434;2023-06-22T08:49:07;3.40;;;2.30;;
43337;SDS011;28933;52.492;13.434;2023-06-22T08:51:53;3.60;;;2.20;;
43337;SDS011;28933;52.492;13.434;2023-06-22T08:54:41;3.70;;;2.72;;
43337;SDS011;28933;52.492;13.434;2023-06-22T08:57:27;3.40;;;2.20;;
43337;SDS011;28933;52.492;13.434;2023-06-22T09:00:14;4.85;;;2.13;;
43337;SDS011;28933;52.492;13.434;2023-06-22T09:03:02;4.07;;;2.28;;
43337;SDS011;28933;52.492;13.434;2023-06-22T09:05:48;3.70;;;2.60;;
43337;SDS011;28933;52.492;13.434;2023-06-22T09:08:35;2.92;;;1.92;;
43337;SDS011;28933;52.492;13.434;2023-06-22T09:11:21;3.65;;;2.20;;
43337;SDS011;28933;52.492;13.434;2023-06-22T09:14:07;2.58;;;1.70;;
43337;SDS011;28933;52.492;13.434;2023-06-22T09:16:54;5.55;;;2.58;;
43337;SDS011;28933;52.492;13.434;2023-06-22T09:19:40;4.82;;;2.20;;
43337;SDS011;28933;52.492;13.434;2023-06-22T09:22:27;7.70;;;2.00;;
43337;SDS011;28933;52.492;13.434;2023-06-22T09:25:14;3.17;;;2.10;;
43337;SDS011;28933;52.492;13.434;2023-06-22T09:28:00;3.15;;;2.38;;
43337;SDS011;28933;52.492;13.434;2023-06-22T09:30:46;3.17;;;2.40;;
43337;SDS011;28933;52.492;13.434;2023-06-22T09:33:32;4.50;;;2.38;;
43337;SDS011;28933;52.492;13.434;2023-06-22T09:36:18;3.97;;;2.30;;
43337;SDS011;28933;52.492;13.434;2023-06-22T09:39:04;3.88;;;2.58;;
43337;SDS011;28933;52.492;13.434;2023-06-22T09:41:51;5.43;;;2.78;;
43337;SDS011;28933;52.492;13.434;2023-06-22T09:44:38;3.72;;;2.30;;
43337;SDS011;28933;52.492;13.434;2023-06-22T09:47:24;3.72;;;2.67;;
43337;SDS011;28933;52.492;13.434;2023-06-22T09:50:10;3.80;;;2.47;;
43337;SDS011;28933;52.492;13.434;2023-06-22T09:52:56;4.88;;;3.13;;
43337;SDS011;28933;52.492;13.434;2023-06-22T09:55:42;3.58;;;2.47;;
43337;SDS011;28933;52.492;13.434;2023-06-22T09:58:28;4.85;;;2.97;;
43337;SDS011;28933;52.492;13.434;2023-06-22T10:01:14;4.35;;;2.65;;
43337;SDS011;28933;52.492;13.434;2023-06-22T10:04:00;4.90;;;2.33;;
43337;SDS011;28933;52.492;13.434;2023-06-22T10:06:47;5.13;;;2.55;;
43337;SDS011;28933;52.492;13.434;2023-06-22T10:09:33;4.50;;;2.67;;
43337;SDS011;28933;52.492;13.434;2023-06-22T10:12:19;6.15;;;4.03;;
43337;SDS011;28933;52.492;13.434;2023-06-22T10:15:05;4.25;;;3.00;;
43337;SDS011;28933;52.492;13.434;2023-06-22T10:17:51;3.97;;;2.72;;
43337;SDS011;28933;52.492;13.434;2023-06-22T10:20:37;3.50;;;2.53;;
43337;SDS011;28933;52.492;13.434;2023-06-22T10:23:23;4.10;;;2.75;;
43337;SDS011;28933;52.492;13.434;2023-06-22T10:26:09;5.68;;;2.47;;
43337;SDS011;28933;52.492;13.434;2023-06-22T10:28:55;6.45;;;2.80;;
43337;SDS011;28933;52.492;13.434;2023-06-22T10:31:41;4.47;;;2.50;;
43337;SDS011;28933;52.492;13.434;2023-06-22T10:34:27;4.65;;;2.78;;
43337;SDS011;28933;52.492;13.434;2023-06-22T10:37:13;3.28;;;2.35;;
43337;SDS011;28933;52.492;13.434;2023-06-22T10:39:59;5.50;;;2.53;;
43337;SDS011;28933;52.492;13.434;2023-06-22T10:42:45;4.63;;;2.55;;
43337;SDS011;28933;52.492;13.434;2023-06-22T10:45:31;3.85;;;2.40;;
43337;SDS011;28933;52.492;13.434;2023-06-22T10:48:17;4.75;;;2.33;;
43337;SDS011;28933;52.492;13.434;2023-06-22T10:51:03;3.78;;;2.58;;
43337;SDS011;28933;52.492;13.434;2023-06-22T10:53:49;5.03;;;2.30;;
43337;SDS011;28933;52.492;13.434;2023-06-22T10:56:36;3.42;;;2.30;;
43337;SDS011;28933;52.492;13.434;2023-06-22T10:59:22;3.63;;;2.50;;
43337;SDS011;28933;52.492;13.434;2023-06-22T11:02:09;5.13;;;2.75;;
43337;SDS011;28933;52.492;13.434;2023-06-22T11:04:55;5.55;;;2.45;;
43337;SDS011;28933;52.492;13.434;2023-06-22T11:07:41;3.45;;;2.20;;
43337;SDS011;28933;52.492;13.434;2023-06-22T11:10:29;4.47;;;2.70;;
43337;SDS011;28933;52.492;13.434;2023-06-22T11:13:15;3.65;;;2.20;;
43337;SDS011;28933;52.492;13.434;2023-06-22T11:16:01;4.65;;;2.42;;
43337;SDS011;28933;52.492;13.434;2023-06-22T11:18:47;3.70;;;2.10;;
43337;SDS011;28933;52.492;13.434;2023-06-22T11:21:32;5.88;;;2.45;;
43337;SDS011;28933;52.492;13.434;2023-06-22T11:24:18;4.53;;;2.35;;
43337;SDS011;28933;52.492;13.434;2023-06-22T11:27:05;4.80;;;2.33;;
43337;SDS011;28933;52.492;13.434;2023-06-22T11:29:51;3.67;;;2.10;;
43337;SDS011;28933;52.492;13.434;2023-06-22T11:32:38;4.13;;;2.17;;
43337;SDS011;28933;52.492;13.434;2023-06-22T11:35:24;4.50;;;2.70;;
43337;SDS011;28933;52.492;13.434;2023-06-22T11:38:10;2.97;;;2.13;;
43337;SDS011;28933;52.492;13.434;2023-06-22T11:40:57;3.50;;;2.20;;
43337;SDS011;28933;52.492;13.434;2023-06-22T11:43:44;4.07;;;2.88;;
43337;SDS011;28933;52.492;13.434;2023-06-22T11:46:30;5.10;;;2.30;;
43337;SDS011;28933;52.492;13.434;2023-06-22T11:49:17;3.70;;;2.25;;
43337;SDS011;28933;52.492;13.434;2023-06-22T11:52:03;3.88;;;2.28;;
43337;SDS011;28933;52.492;13.434;2023-06-22T11:54:49;2.92;;;2.08;;
43337;SDS011;28933;52.492;13.434;2023-06-22T11:57:35;3.55;;;2.30;;
43337;SDS011;28933;52.492;13.434;2023-06-22T12:00:22;3.60;;;2.53;;
43337;SDS011;28933;52.492;13.434;2023-06-22T12:03:09;4.88;;;2.58;;
43337;SDS011;28933;52.492;13.434;2023-06-22T12:05:56;5.22;;;2.88;;
43337;SDS011;28933;52.492;13.434;2023-06-22T12:08:42;3.28;;;2.58;;
43337;SDS011;28933;52.492;13.434;2023-06-22T12:11:28;5.25;;;2.40;;
43337;SDS011;28933;52.492;13.434;2023-06-22T12:14:14;4.32;;;2.72;;
43337;SDS011;28933;52.492;13.434;2023-06-22T12:17:00;3.53;;;2.80;;
43337;SDS011;28933;52.492;13.434;2023-06-22T12:19:46;3.25;;;2.28;;
43337;SDS011;28933;52.492;13.434;2023-06-22T12:22:32;3.33;;;2.67;;
43337;SDS011;28933;52.492;13.434;2023-06-22T12:25:18;4.40;;;2.75;;
43337;SDS011;28933;52.492;13.434;2023-06-22T12:28:04;4.00;;;2.60;;
43337;SDS011;28933;52.492;13.434;2023-06-22T12:30:50;3.83;;;2.45;;
43337;SDS011;28933;52.492;13.434;2023-06-22T12:33:36;4.50;;;2.88;;
43337;SDS011;28933;52.492;13.434;2023-06-22T12:36:22;4.97;;;2.90;;
43337;SDS011;28933;52.492;13.434;2023-06-22T12:39:09;4.05;;;2.67;;
43337;SDS011;28933;52.492;13.434;2023-06-22T12:41:55;5.05;;;2.80;;
43337;SDS011;28933;52.492;13.434;2023-06-22T12:44:41;3.28;;;2.50;;
43337;SDS011;28933;52.492;13.434;2023-06-22T12:47:27;4.28;;;3.05;;
43337;SDS011;28933;52.492;13.434;2023-06-22T12:50:13;4.35;;;3.10;;
43337;SDS011;28933;52.492;13.434;2023-06-22T12:52:59;4.70;;;3.05;;
43337;SDS011;28933;52.492;13.434;2023-06-22T12:55:47;3.47;;;2.60;;
43337;SDS011;28933;52.492;13.434;2023-06-22T12:58:33;6.47;;;3.22;;
43337;SDS011;28933;52.492;13.434;2023-06-22T13:01:19;6.63;;;2.72;;
43337;SDS011;28933;52.492;13.434;2023-06-22T13:04:05;5.15;;;2.90;;
43337;SDS011;28933;52.492;13.434;2023-06-22T13:06:51;4.00;;;2.70;;
43337;SDS011;28933;52.492;13.434;2023-06-22T13:09:36;5.05;;;2.80;;
43337;SDS011;28933;52.492;13.434;2023-06-22T13:12:22;3.85;;;2.90;;
43337;SDS011;28933;52.492;13.434;2023-06-22T13:15:09;3.67;;;2.58;;
43337;SDS011;28933;52.492;13.434;2023-06-22T13:17:55;5.20;;;2.90;;
43337;SDS011;28933;52.492;13.434;2023-06-22T13:20:41;4.95;;;2.80;;
43337;SDS011;28933;52.492;13.434;2023-06-22T13:23:27;3.85;;;2.67;;
43337;SDS011;28933;52.492;13.434;2023-06-22T13:26:13;6.13;;;2.83;;
43337;SDS011;28933;52.492;13.434;2023-06-22T13:28:59;4.00;;;2.80;;
43337;SDS011;28933;52.492;13.434;2023-06-22T13:31:45;4.88;;;3.25;;
43337;SDS011;28933;52.492;13.434;2023-06-22T13:34:31;7.38;;;3.55;;
43337;SDS011;28933;52.492;13.434;2023-06-22T13:37:17;3.47;;;2.70;;
43337;SDS011;28933;52.492;13.434;2023-06-22T13:40:03;4.35;;;2.88;;
43337;SDS011;28933;52.492;13.434;2023-06-22T13:42:51;4.47;;;2.88;;
43337;SDS011;28933;52.492;13.434;2023-06-22T13:45:37;5.10;;;3.20;;
43337;SDS011;28933;52.492;13.434;2023-06-22T13:48:24;3.58;;;2.42;;
43337;SDS011;28933;52.492;13.434;2023-06-22T13:51:11;3.58;;;2.75;;
43337;SDS011;28933;52.492;13.434;2023-06-22T13:53:57;8.07;;;3.33;;
43337;SDS011;28933;52.492;13.434;2023-06-22T13:56:43;7.75;;;2.90;;
43337;SDS011;28933;52.492;13.434;2023-06-22T13:59:29;3.50;;;2.83;;
43337;SDS011;28933;52.492;13.434;2023-06-22T14:02:15;4.18;;;3.03;;
43337;SDS011;28933;52.492;13.434;2023-06-22T14:05:01;5.65;;;3.08;;
43337;SDS011;28933;52.492;13.434;2023-06-22T14:07:48;4.65;;;2.78;;
43337;SDS011;28933;52.492;13.434;2023-06-22T14:10:33;4.63;;;2.72;;
43337;SDS011;28933;52.492;13.434;2023-06-22T14:13:19;3.65;;;2.70;;
43337;SDS011;28933;52.492;13.434;2023-06-22T14:16:05;3.75;;;2.72;;
43337;SDS011;28933;52.492;13.434;2023-06-22T14:18:51;4.00;;;2.67;;
43337;SDS011;28933;52.492;13.434;2023-06-22T14:21:37;3.80;;;2.88;;
43337;SDS011;28933;52.492;13.434;2023-06-22T14:24:23;5.65;;;2.92;;
43337;SDS011;28933;52.492;13.434;2023-06-22T14:27:09;3.85;;;2.60;;
43337;SDS011;28933;52.492;13.434;2023-06-22T14:29:55;3.78;;;2.75;;
43337;SDS011;28933;52.492;13.434;2023-06-22T14:32:42;3.78;;;2.90;;
43337;SDS011;28933;52.492;13.434;2023-06-22T14:35:29;4.78;;;2.67;;
43337;SDS011;28933;52.492;13.434;2023-06-22T14:38:15;6.90;;;3.10;;
43337;SDS011;28933;52.492;13.434;2023-06-22T14:41:01;4.30;;;2.90;;
43337;SDS011;28933;52.492;13.434;2023-06-22T14:43:47;4.63;;;3.20;;
43337;SDS011;28933;52.492;13.434;2023-06-22T14:46:34;4.25;;;3.00;;
43337;SDS011;28933;52.492;13.434;2023-06-22T14:49:20;4.82;;;2.75;;
43337;SDS011;28933;52.492;13.434;2023-06-22T14:52:06;4.05;;;2.50;;
43337;SDS011;28933;52.492;13.434;2023-06-22T14:54:52;4.80;;;2.90;;
43337;SDS011;28933;52.492;13.434;2023-06-22T14:57:38;4.03;;;3.10;;
43337;SDS011;28933;52.492;13.434;2023-06-22T15:00:24;3.88;;;2.80;;
43337;SDS011;28933;52.492;13.434;2023-06-22T15:03:10;4.35;;;3.00;;
43337;SDS011;28933;52.492;13.434;2023-06-22T15:06:02;4.93;;;3.13;;
43337;SDS011;28933;52.492;13.434;2023-06-22T15:08:49;5.88;;;3.00;;
43337;SDS011;28933;52.492;13.434;2023-06-22T15:11:35;4.38;;;3.50;;
43337;SDS011;28933;52.492;13.434;2023-06-22T15:14:20;5.55;;;3.28;;
43337;SDS011;28933;52.492;13.434;2023-06-22T15:17:07;4.05;;;2.53;;
43337;SDS011;28933;52.492;13.434;2023-06-22T15:19:54;6.03;;;2.70;;
43337;SDS011;28933;52.492;13.434;2023-06-22T15:22:41;4.20;;;3.08;;
43337;SDS011;28933;52.492;13.434;2023-06-22T15:25:26;3.53;;;2.40;;
43337;SDS011;28933;52.492;13.434;2023-06-22T15:28:13;3.67;;;2.70;;
43337;SDS011;28933;52.492;13.434;2023-06-22T15:30:59;4.80;;;2.88;;
43337;SDS011;28933;52.492;13.434;2023-06-22T15:33:45;4.22;;;3.05;;
43337;SDS011;28933;52.492;13.434;2023-06-22T15:36:31;3.88;;;3.17;;
43337;SDS011;28933;52.492;13.434;2023-06-22T15:39:19;3.78;;;2.80;;
43337;SDS011;28933;52.492;13.434;2023-06-22T15:42:05;3.45;;;2.75;;
43337;SDS011;28933;52.492;13.434;2023-06-22T15:44:51;4.47;;;3.38;;
43337;SDS011;28933;52.492;13.434;2023-06-22T15:47:37;7.40;;;3.20;;
43337;SDS011;28933;52.492;13.434;2023-06-22T15:50:23;8.10;;;3.88;;
43337;SDS011;28933;52.492;13.434;2023-06-22T15:53:09;6.03;;;3.13;;
43337;SDS011;28933;52.492;13.434;2023-06-22T15:55:55;5.28;;;2.97;;
43337;SDS011;28933;52.492;13.434;2023-06-22T15:58:40;4.90;;;3.33;;
43337;SDS011;28933;52.492;13.434;2023-06-22T16:01:26;6.95;;;3.55;;
43337;SDS011;28933;52.492;13.434;2023-06-22T16:04:12;6.88;;;3.30;;
43337;SDS011;28933;52.492;13.434;2023-06-22T16:06:58;4.32;;;3.22;;
43337;SDS011;28933;52.492;13.434;2023-06-22T16:09:44;4.22;;;2.92;;
43337;SDS011;28933;52.492;13.434;2023-06-22T16:12:30;6.55;;;3.50;;
43337;SDS011;28933;52.492;13.434;2023-06-22T16:15:16;4.82;;;3.33;;
43337;SDS011;28933;52.492;13.434;2023-06-22T16:18:02;5.93;;;3.33;;
43337;SDS011;28933;52.492;13.434;2023-06-22T16:20:48;4.13;;;2.97;;
43337;SDS011;28933;52.492;13.434;2023-06-22T16:23:34;4.43;;;3.42;;
43337;SDS011;28933;52.492;13.434;2023-06-22T16:26:20;5.35;;;3.03;;
43337;SDS011;28933;52.492;13.434;2023-06-22T16:29:06;4.80;;;3.50;;
43337;SDS011;28933;52.492;13.434;2023-06-22T16:31:53;5.15;;;3.25;;